PWSweather.com
Personal Weather Stations
Station Observations
IHTIMAN1
Neighbourhood 1, IhtimanBG 2050

Neighbourhood 1IhtimanBG 2050

Lat: 42.436852, Lon: 23.817921

Elevation: 2066

Station Type: Oregon Scientific WMR968

http://ihtiman-meteo.com

High Low Average
Temperature 42.3°F5.7°C 29.5°F-1.4°C 36.5°F2.5°C
Dew Point 42.3°F5.7°C 29.5°F-1.4°C 36.4°F2.4°C
Winds 5.8 mph 9.3 kmh Calm Calm Calm SCalm S
Wind Gusts 8.1 mph13.0 kmh -- 1.0 mph1.6 kmh
Humidity 100% 94% 100%
Pressure 29.97 in1014.9 mb 29.82 in1009.8 mb -
Precipitation 0.09 in2.3 mm - -
Hour Temp Dew Point Humidity Winds Wind Gusts Pressure Precip Precip Rate Daily Precip Total
12:09 AM 33.3°F0.7°C 33.3°F0.7°C 100% Calm Calm -- 29.97 in1014.9 mb - 0.00 in0.0 mm 0.00 in0.0 mm
12:19 AM 33.3°F0.7°C 33.3°F0.7°C 100% Calm Calm -- 29.97 in1014.9 mb - 0.00 in0.0 mm 0.00 in0.0 mm
12:29 AM 33.1°F0.6°C 33.1°F0.6°C 100% Calm Calm -- 29.94 in1013.9 mb - 0.00 in0.0 mm 0.00 in0.0 mm
12:39 AM 32.9°F0.5°C 32.9°F0.5°C 100% Calm Calm -- 29.94 in1013.9 mb - 0.00 in0.0 mm 0.00 in0.0 mm
12:49 AM 32.9°F0.5°C 32.9°F0.5°C 100% Calm Calm -- 29.94 in1013.9 mb - 0.00 in0.0 mm 0.00 in0.0 mm
12:59 AM 32.9°F0.5°C 32.9°F0.5°C 100% Calm Calm -- 29.94 in1013.9 mb - 0.00 in0.0 mm 0.00 in0.0 mm
01:09 AM 32.9°F0.5°C 32.9°F0.5°C 100% Calm Calm -- 29.94 in1013.9 mb - 0.00 in0.0 mm 0.00 in0.0 mm
01:19 AM 32.9°F0.5°C 32.9°F0.5°C 100% Calm Calm -- 29.94 in1013.9 mb - 0.00 in0.0 mm 0.00 in0.0 mm
01:29 AM 32.7°F0.4°C 32.8°F0.4°C 100% Calm Calm -- 29.94 in1013.9 mb - 0.00 in0.0 mm 0.00 in0.0 mm
01:39 AM 32.2°F0.1°C 32.2°F0.1°C 100% Calm Calm -- 29.94 in1013.9 mb - 0.00 in0.0 mm 0.00 in0.0 mm
01:49 AM 32.2°F0.1°C 32.2°F0.1°C 100% Calm Calm -- 29.94 in1013.9 mb - 0.00 in0.0 mm 0.00 in0.0 mm
01:59 AM 32.2°F0.1°C 32.2°F0.1°C 100% Calm Calm -- 29.94 in1013.9 mb - 0.00 in0.0 mm 0.00 in0.0 mm
02:09 AM 32.2°F0.1°C 32.2°F0.1°C 100% Calm Calm -- 29.94 in1013.9 mb - 0.00 in0.0 mm 0.00 in0.0 mm
02:19 AM 32.0°F0.0°C 32.0°F0.0°C 100% Calm Calm -- 29.94 in1013.9 mb - 0.00 in0.0 mm 0.00 in0.0 mm
02:29 AM 32.2°F0.1°C 32.2°F0.1°C 100% Calm Calm -- 29.94 in1013.9 mb - 0.00 in0.0 mm 0.00 in0.0 mm
02:39 AM 32.4°F0.2°C 32.4°F0.2°C 100% Calm Calm -- 29.94 in1013.9 mb - 0.00 in0.0 mm 0.00 in0.0 mm
02:49 AM 32.5°F0.3°C 32.5°F0.3°C 100% Calm Calm -- 29.97 in1014.9 mb - 0.00 in0.0 mm 0.00 in0.0 mm
02:59 AM 32.4°F0.2°C 32.4°F0.2°C 100% Calm Calm -- 29.97 in1014.9 mb - 0.00 in0.0 mm 0.00 in0.0 mm
03:09 AM 32.5°F0.3°C 32.5°F0.3°C 100% Calm Calm -- 29.97 in1014.9 mb - 0.00 in0.0 mm 0.00 in0.0 mm
03:19 AM 32.4°F0.2°C 32.4°F0.2°C 100% Calm Calm -- 29.94 in1013.9 mb - 0.00 in0.0 mm 0.00 in0.0 mm
03:29 AM 32.0°F0.0°C 32.0°F0.0°C 100% Calm Calm -- 29.94 in1013.9 mb - 0.00 in0.0 mm 0.00 in0.0 mm
03:39 AM 31.3°F-0.4°C 31.3°F-0.4°C 100% Calm Calm -- 29.94 in1013.9 mb - 0.00 in0.0 mm 0.00 in0.0 mm
03:49 AM 31.1°F-0.5°C 31.1°F-0.5°C 100% Calm Calm -- 29.94 in1013.9 mb - 0.00 in0.0 mm 0.00 in0.0 mm
03:59 AM 31.1°F-0.5°C 31.1°F-0.5°C 100% Calm Calm -- 29.94 in1013.9 mb - 0.00 in0.0 mm 0.00 in0.0 mm
04:09 AM 31.1°F-0.5°C 31.1°F-0.5°C 100% Calm Calm -- 29.94 in1013.9 mb - 0.00 in0.0 mm 0.00 in0.0 mm
04:19 AM 30.9°F-0.6°C 30.9°F-0.6°C 100% Calm Calm -- 29.94 in1013.9 mb - 0.00 in0.0 mm 0.00 in0.0 mm
04:29 AM 31.1°F-0.5°C 31.1°F-0.5°C 100% Calm Calm -- 29.91 in1012.9 mb - 0.00 in0.0 mm 0.00 in0.0 mm
04:39 AM 31.1°F-0.5°C 31.1°F-0.5°C 100% Calm Calm -- 29.91 in1012.9 mb - 0.00 in0.0 mm 0.00 in0.0 mm
04:49 AM 29.5°F-1.4°C 29.5°F-1.4°C 100% Calm Calm -- 29.94 in1013.9 mb - 0.00 in0.0 mm 0.00 in0.0 mm
04:59 AM 29.8°F-1.2°C 29.8°F-1.2°C 100% Calm Calm -- 29.94 in1013.9 mb - 0.00 in0.0 mm 0.00 in0.0 mm
05:09 AM 30.2°F-1.0°C 30.2°F-1.0°C 100% Calm Calm -- 29.94 in1013.9 mb - 0.00 in0.0 mm 0.00 in0.0 mm
05:19 AM 30.4°F-0.9°C 30.4°F-0.9°C 100% Calm Calm -- 29.91 in1012.9 mb - 0.00 in0.0 mm 0.00 in0.0 mm
05:29 AM 30.7°F-0.7°C 30.7°F-0.7°C 100% Calm Calm -- 29.94 in1013.9 mb - 0.00 in0.0 mm 0.00 in0.0 mm
05:39 AM 31.0°F-0.6°C 31.0°F-0.6°C 100% Calm Calm -- 29.94 in1013.9 mb - 0.00 in0.0 mm 0.00 in0.0 mm
05:49 AM 30.9°F-0.6°C 30.9°F-0.6°C 100% Calm Calm -- 29.94 in1013.9 mb - 0.00 in0.0 mm 0.00 in0.0 mm
05:59 AM 31.1°F-0.5°C 31.1°F-0.5°C 100% Calm Calm -- 29.94 in1013.9 mb - 0.00 in0.0 mm 0.00 in0.0 mm
06:09 AM 31.6°F-0.2°C 31.6°F-0.2°C 100% Calm Calm -- 29.94 in1013.9 mb - 0.00 in0.0 mm 0.00 in0.0 mm
06:19 AM 31.8°F-0.1°C 31.8°F-0.1°C 100% Calm Calm -- 29.94 in1013.9 mb - 0.00 in0.0 mm 0.00 in0.0 mm
06:29 AM 31.8°F-0.1°C 31.8°F-0.1°C 100% Calm Calm -- 29.94 in1013.9 mb - 0.00 in0.0 mm 0.00 in0.0 mm
06:39 AM 32.1°F0.1°C 32.1°F0.1°C 100% Calm Calm -- 29.94 in1013.9 mb - 0.00 in0.0 mm 0.00 in0.0 mm
06:49 AM 32.2°F0.1°C 32.2°F0.1°C 100% Calm Calm -- 29.94 in1013.9 mb - 0.00 in0.0 mm 0.00 in0.0 mm
06:59 AM 32.2°F0.1°C 32.2°F0.1°C 100% Calm Calm -- 29.94 in1013.9 mb - 0.00 in0.0 mm 0.00 in0.0 mm
07:09 AM 31.8°F-0.1°C 31.8°F-0.1°C 100% Calm Calm -- 29.94 in1013.9 mb - 0.00 in0.0 mm 0.00 in0.0 mm
07:19 AM 31.6°F-0.2°C 31.6°F-0.2°C 100% Calm Calm -- 29.94 in1013.9 mb - 0.00 in0.0 mm 0.00 in0.0 mm
07:29 AM 30.9°F-0.6°C 30.9°F-0.6°C 100% Calm Calm -- 29.94 in1013.9 mb - 0.00 in0.0 mm 0.00 in0.0 mm
07:39 AM 30.9°F-0.6°C 30.9°F-0.6°C 100% Calm Calm -- 29.94 in1013.9 mb - 0.00 in0.0 mm 0.00 in0.0 mm
07:49 AM 30.9°F-0.6°C 30.9°F-0.6°C 100% Calm Calm -- 29.94 in1013.9 mb - 0.00 in0.0 mm 0.00 in0.0 mm
07:59 AM 31.1°F-0.5°C 31.1°F-0.5°C 100% Calm Calm -- 29.94 in1013.9 mb - 0.00 in0.0 mm 0.00 in0.0 mm
08:09 AM 31.6°F-0.2°C 31.6°F-0.2°C 100% Calm Calm -- 29.94 in1013.9 mb - 0.00 in0.0 mm 0.00 in0.0 mm
08:19 AM 31.8°F-0.1°C 31.8°F-0.1°C 100% Calm Calm -- 29.94 in1013.9 mb - 0.00 in0.0 mm 0.00 in0.0 mm
08:29 AM 32.2°F0.1°C 32.2°F0.1°C 100% Calm Calm -- 29.94 in1013.9 mb - 0.00 in0.0 mm 0.00 in0.0 mm
08:39 AM 32.5°F0.3°C 32.5°F0.3°C 100% Calm Calm -- 29.94 in1013.9 mb - 0.00 in0.0 mm 0.00 in0.0 mm
08:49 AM 32.7°F0.4°C 32.7°F0.4°C 100% Calm Calm 2.3 mph3.7 kmh 29.94 in1013.9 mb - 0.00 in0.0 mm 0.00 in0.0 mm
08:59 AM 32.6°F0.3°C 32.6°F0.3°C 100% Calm Calm -- 29.94 in1013.9 mb - 0.00 in0.0 mm 0.00 in0.0 mm
09:09 AM 32.6°F0.3°C 32.6°F0.3°C 100% Calm Calm -- 29.94 in1013.9 mb - 0.00 in0.0 mm 0.00 in0.0 mm
09:19 AM 32.7°F0.4°C 32.7°F0.4°C 100% Calm Calm -- 29.94 in1013.9 mb - 0.00 in0.0 mm 0.00 in0.0 mm
09:29 AM 32.9°F0.5°C 32.9°F0.5°C 100% Calm Calm -- 29.94 in1013.9 mb - 0.00 in0.0 mm 0.00 in0.0 mm
09:39 AM 33.3°F0.7°C 33.3°F0.7°C 100% Calm Calm -- 29.94 in1013.9 mb - 0.00 in0.0 mm 0.00 in0.0 mm
09:49 AM 33.5°F0.8°C 33.5°F0.8°C 100% Calm Calm -- 29.94 in1013.9 mb - 0.00 in0.0 mm 0.00 in0.0 mm
09:59 AM 33.6°F0.9°C 33.6°F0.9°C 100% Calm Calm -- 29.94 in1013.9 mb - 0.00 in0.0 mm 0.00 in0.0 mm
10:09 AM 33.8°F1.0°C 33.8°F1.0°C 100% Calm Calm -- 29.94 in1013.9 mb - 0.00 in0.0 mm 0.00 in0.0 mm
10:19 AM 33.9°F1.1°C 33.9°F1.1°C 100% Calm Calm -- 29.94 in1013.9 mb - 0.00 in0.0 mm 0.00 in0.0 mm
10:29 AM 34.0°F1.1°C 34.0°F1.1°C 100% Calm Calm -- 29.94 in1013.9 mb - 0.00 in0.0 mm 0.00 in0.0 mm
10:39 AM 34.0°F1.1°C 34.0°F1.1°C 100% Calm Calm -- 29.94 in1013.9 mb - 0.00 in0.0 mm 0.00 in0.0 mm
10:49 AM 34.0°F1.1°C 34.0°F1.1°C 100% Calm Calm -- 29.94 in1013.9 mb - 0.00 in0.0 mm 0.00 in0.0 mm
10:59 AM 34.3°F1.3°C 34.3°F1.3°C 100% Calm Calm -- 29.94 in1013.9 mb - 0.00 in0.0 mm 0.00 in0.0 mm
11:09 AM 34.9°F1.6°C 34.9°F1.6°C 100% Calm Calm -- 29.94 in1013.9 mb - 0.00 in0.0 mm 0.00 in0.0 mm
11:19 AM 35.1°F1.7°C 35.1°F1.7°C 100% Calm Calm -- 29.91 in1012.9 mb - 0.00 in0.0 mm 0.00 in0.0 mm
11:29 AM 35.6°F2.0°C 35.6°F2.0°C 100% Calm Calm -- 29.91 in1012.9 mb - 0.00 in0.0 mm 0.00 in0.0 mm
11:39 AM 36.1°F2.3°C 36.1°F2.3°C 100% Calm Calm -- 29.91 in1012.9 mb - 0.00 in0.0 mm 0.00 in0.0 mm
11:49 AM 36.9°F2.7°C 36.9°F2.7°C 100% Calm Calm -- 29.91 in1012.9 mb - 0.00 in0.0 mm 0.00 in0.0 mm
11:59 AM 37.0°F2.8°C 37.0°F2.8°C 100% Calm Calm -- 29.91 in1012.9 mb - 0.00 in0.0 mm 0.00 in0.0 mm
12:09 PM 36.7°F2.6°C 36.7°F2.6°C 100% Calm Calm -- 29.91 in1012.9 mb - 0.00 in0.0 mm 0.00 in0.0 mm
12:19 PM 37.0°F2.8°C 37.0°F2.8°C 100% Calm Calm -- 29.91 in1012.9 mb - 0.00 in0.0 mm 0.00 in0.0 mm
12:29 PM 37.2°F2.9°C 37.2°F2.9°C 100% Calm Calm -- 29.91 in1012.9 mb - 0.00 in0.0 mm 0.00 in0.0 mm
12:39 PM 38.1°F3.4°C 38.1°F3.4°C 100% Calm Calm -- 29.91 in1012.9 mb - 0.00 in0.0 mm 0.00 in0.0 mm
12:49 PM 37.9°F3.3°C 37.9°F3.3°C 100% Calm Calm -- 29.91 in1012.9 mb - 0.00 in0.0 mm 0.00 in0.0 mm
12:59 PM 38.2°F3.4°C 38.2°F3.4°C 100% Calm Calm -- 29.91 in1012.9 mb - 0.00 in0.0 mm 0.00 in0.0 mm
01:09 PM 39.1°F3.9°C 39.1°F3.9°C 100% Calm Calm -- 29.91 in1012.9 mb - 0.00 in0.0 mm 0.00 in0.0 mm
01:19 PM 40.2°F4.6°C 40.2°F4.6°C 100% Calm Calm -- 29.88 in1011.9 mb - 0.00 in0.0 mm 0.00 in0.0 mm
01:29 PM 41.2°F5.1°C 41.2°F5.1°C 100% Calm Calm -- 29.88 in1011.9 mb - 0.00 in0.0 mm 0.00 in0.0 mm
01:39 PM 41.7°F5.4°C 41.7°F5.4°C 100% Calm Calm 3.5 mph5.6 kmh 29.88 in1011.9 mb - 0.00 in0.0 mm 0.00 in0.0 mm
01:49 PM 42.2°F5.7°C 42.2°F5.7°C 100% Calm Calm -- 29.88 in1011.9 mb - 0.00 in0.0 mm 0.00 in0.0 mm
01:59 PM 42.2°F5.7°C 42.2°F5.7°C 100% 5.8 mph SE9.3 kmh SE 8.1 mph13.0 kmh 29.88 in1011.9 mb - 0.00 in0.0 mm 0.00 in0.0 mm
02:09 PM 42.1°F5.6°C 42.1°F5.6°C 100% 4.6 mph SE7.4 kmh SE 5.8 mph9.3 kmh 29.88 in1011.9 mb - 0.00 in0.0 mm 0.00 in0.0 mm
02:19 PM 42.3°F5.7°C 42.3°F5.7°C 100% Calm Calm -- 29.86 in1011.2 mb - 0.00 in0.0 mm 0.00 in0.0 mm
02:29 PM 42.3°F5.7°C 41.5°F5.3°C 97% Calm Calm 3.5 mph5.6 kmh 29.88 in1011.9 mb - 0.00 in0.0 mm 0.00 in0.0 mm
02:39 PM 41.9°F5.5°C 40.9°F4.9°C 96% Calm Calm -- 29.88 in1011.9 mb - 0.00 in0.0 mm 0.00 in0.0 mm
02:49 PM 41.9°F5.5°C 40.5°F4.7°C 95% 2.3 mph SSE3.7 kmh SSE 3.5 mph5.6 kmh 29.88 in1011.9 mb - 0.00 in0.0 mm 0.00 in0.0 mm
02:59 PM 41.7°F5.4°C 40.1°F4.5°C 94% Calm Calm 3.5 mph5.6 kmh 29.86 in1011.2 mb - 0.00 in0.0 mm 0.00 in0.0 mm
03:09 PM 41.5°F5.3°C 39.9°F4.4°C 94% Calm Calm 2.3 mph3.7 kmh 29.86 in1011.2 mb - 0.00 in0.0 mm 0.00 in0.0 mm
03:19 PM 41.5°F5.3°C 40.2°F4.6°C 95% Calm Calm 2.3 mph3.7 kmh 29.86 in1011.2 mb - 0.00 in0.0 mm 0.00 in0.0 mm
03:29 PM 41.4°F5.2°C 40.0°F4.4°C 95% 2.3 mph SE3.7 kmh SE 3.5 mph5.6 kmh 29.86 in1011.2 mb - 0.00 in0.0 mm 0.00 in0.0 mm
03:39 PM 41.1°F5.1°C 40.1°F4.5°C 96% Calm Calm 4.6 mph7.4 kmh 29.86 in1011.2 mb - 0.00 in0.0 mm 0.00 in0.0 mm
03:49 PM 41.0°F5.0°C 39.9°F4.4°C 96% Calm Calm 2.3 mph3.7 kmh 29.86 in1011.2 mb - 0.00 in0.0 mm 0.00 in0.0 mm
03:59 PM 40.9°F4.9°C 40.1°F4.5°C 97% 1.2 mph ESE1.9 kmh ESE 2.3 mph3.7 kmh 29.86 in1011.2 mb - 0.00 in0.0 mm 0.00 in0.0 mm
04:09 PM 40.8°F4.9°C 40.0°F4.4°C 97% 3.5 mph SE5.6 kmh SE 5.8 mph9.3 kmh 29.86 in1011.2 mb - 0.00 in0.0 mm 0.00 in0.0 mm
04:19 PM 40.8°F4.9°C 40.0°F4.4°C 97% Calm Calm -- 29.86 in1011.2 mb - 0.00 in0.0 mm 0.00 in0.0 mm
04:29 PM 40.8°F4.9°C 40.8°F4.9°C 100% Calm Calm 2.3 mph3.7 kmh 29.86 in1011.2 mb - 0.00 in0.0 mm 0.00 in0.0 mm
04:39 PM 40.6°F4.8°C 40.6°F4.8°C 100% 3.5 mph SE5.6 kmh SE 5.8 mph9.3 kmh 29.86 in1011.2 mb - 0.00 in0.0 mm 0.00 in0.0 mm
04:49 PM 40.8°F4.9°C 40.8°F4.9°C 100% Calm Calm 2.3 mph3.7 kmh 29.82 in1009.8 mb - 0.00 in0.0 mm 0.00 in0.0 mm
04:59 PM 40.8°F4.9°C 40.8°F4.9°C 100% Calm Calm 3.5 mph5.6 kmh 29.86 in1011.2 mb - 0.00 in0.0 mm 0.00 in0.0 mm
05:09 PM 40.8°F4.9°C 40.8°F4.9°C 100% Calm Calm -- 29.86 in1011.2 mb - 0.00 in0.0 mm 0.00 in0.0 mm
05:19 PM 40.8°F4.9°C 40.8°F4.9°C 100% Calm Calm -- 29.86 in1011.2 mb - 0.00 in0.0 mm 0.00 in0.0 mm
05:29 PM 40.6°F4.8°C 40.6°F4.8°C 100% Calm Calm -- 29.86 in1011.2 mb - 0.00 in0.0 mm 0.00 in0.0 mm
05:39 PM 40.6°F4.8°C 40.6°F4.8°C 100% Calm Calm -- 29.86 in1011.2 mb - 0.00 in0.0 mm 0.00 in0.0 mm
05:49 PM 40.5°F4.7°C 40.5°F4.7°C 100% Calm Calm -- 29.86 in1011.2 mb - 0.00 in0.0 mm 0.00 in0.0 mm
05:59 PM 40.3°F4.6°C 40.3°F4.6°C 100% Calm Calm -- 29.86 in1011.2 mb - 0.00 in0.0 mm 0.00 in0.0 mm
06:09 PM 40.3°F4.6°C 40.3°F4.6°C 100% Calm Calm -- 29.86 in1011.2 mb - 0.00 in0.0 mm 0.00 in0.0 mm
06:19 PM 40.3°F4.6°C 40.3°F4.6°C 100% Calm Calm -- 29.86 in1011.2 mb - 0.00 in0.0 mm 0.00 in0.0 mm
06:29 PM 40.3°F4.6°C 40.3°F4.6°C 100% Calm Calm -- 29.88 in1011.9 mb - 0.00 in0.0 mm 0.00 in0.0 mm
06:39 PM 40.3°F4.6°C 40.3°F4.6°C 100% Calm Calm -- 29.88 in1011.9 mb - 0.00 in0.0 mm 0.00 in0.0 mm
06:49 PM 40.3°F4.6°C 40.3°F4.6°C 100% Calm Calm -- 29.88 in1011.9 mb - 0.00 in0.0 mm 0.00 in0.0 mm
06:59 PM 40.5°F4.7°C 40.5°F4.7°C 100% Calm Calm -- 29.88 in1011.9 mb - 0.00 in0.0 mm 0.00 in0.0 mm
07:09 PM 40.5°F4.7°C 40.5°F4.7°C 100% Calm Calm -- 29.88 in1011.9 mb - 0.00 in0.0 mm 0.00 in0.0 mm
07:19 PM 40.5°F4.7°C 40.5°F4.7°C 100% Calm Calm 2.3 mph3.7 kmh 29.88 in1011.9 mb - 0.05 in1.3 mm 0.05 in1.3 mm
07:29 PM 40.6°F4.8°C 40.6°F4.8°C 100% Calm Calm 2.3 mph3.7 kmh 29.88 in1011.9 mb - 0.05 in1.3 mm 0.05 in1.3 mm
07:39 PM 40.5°F4.7°C 40.5°F4.7°C 100% Calm Calm -- 29.88 in1011.9 mb - 0.05 in1.3 mm 0.05 in1.3 mm
07:49 PM 40.5°F4.7°C 40.5°F4.7°C 100% Calm Calm -- 29.88 in1011.9 mb - 0.05 in1.3 mm 0.05 in1.3 mm
07:59 PM 40.5°F4.7°C 40.5°F4.7°C 100% Calm Calm -- 29.88 in1011.9 mb - 0.05 in1.3 mm 0.05 in1.3 mm
08:09 PM 40.5°F4.7°C 40.5°F4.7°C 100% Calm Calm -- 29.88 in1011.9 mb - 0.05 in1.3 mm 0.05 in1.3 mm
08:19 PM 40.6°F4.8°C 40.6°F4.8°C 100% Calm Calm -- 29.88 in1011.9 mb - 0.00 in0.0 mm 0.05 in1.3 mm
08:29 PM 40.6°F4.8°C 40.6°F4.8°C 100% Calm Calm -- 29.88 in1011.9 mb - 0.05 in1.3 mm 0.09 in2.3 mm
08:39 PM 40.6°F4.8°C 40.6°F4.8°C 100% Calm Calm -- 29.88 in1011.9 mb - 0.05 in1.3 mm 0.09 in2.3 mm
08:49 PM 40.7°F4.8°C 40.7°F4.8°C 100% Calm Calm -- 29.88 in1011.9 mb - 0.05 in1.3 mm 0.09 in2.3 mm
08:59 PM 40.8°F4.9°C 40.8°F4.9°C 100% Calm Calm 2.3 mph3.7 kmh 29.88 in1011.9 mb - 0.05 in1.3 mm 0.09 in2.3 mm
09:09 PM 41.0°F5.0°C 41.0°F5.0°C 100% Calm Calm -- 29.88 in1011.9 mb - 0.05 in1.3 mm 0.09 in2.3 mm
09:19 PM 41.0°F5.0°C 41.0°F5.0°C 100% 1.2 mph SE1.9 kmh SE 3.5 mph5.6 kmh 29.88 in1011.9 mb - 0.05 in1.3 mm 0.09 in2.3 mm
09:29 PM 41.0°F5.0°C 41.0°F5.0°C 100% 2.3 mph SE3.7 kmh SE 2.3 mph3.7 kmh 29.88 in1011.9 mb - 0.00 in0.0 mm 0.09 in2.3 mm
09:39 PM 41.0°F5.0°C 41.0°F5.0°C 100% 1.2 mph SE1.9 kmh SE 3.5 mph5.6 kmh 29.88 in1011.9 mb - 0.00 in0.0 mm 0.09 in2.3 mm
09:49 PM 41.2°F5.1°C 41.2°F5.1°C 100% Calm Calm 3.5 mph5.6 kmh 29.88 in1011.9 mb - 0.00 in0.0 mm 0.09 in2.3 mm
09:59 PM 41.6°F5.3°C 41.6°F5.3°C 100% 5.8 mph SE9.3 kmh SE 8.1 mph13.0 kmh 29.88 in1011.9 mb - 0.00 in0.0 mm 0.09 in2.3 mm
10:09 PM 41.5°F5.3°C 41.5°F5.3°C 100% 4.6 mph SE7.4 kmh SE 5.8 mph9.3 kmh 29.88 in1011.9 mb - 0.00 in0.0 mm 0.09 in2.3 mm
10:19 PM 41.5°F5.3°C 41.5°F5.3°C 100% 3.5 mph SE5.6 kmh SE 5.8 mph9.3 kmh 29.86 in1011.2 mb - 0.00 in0.0 mm 0.09 in2.3 mm
10:29 PM 41.5°F5.3°C 41.5°F5.3°C 100% 3.5 mph E5.6 kmh E 3.5 mph5.6 kmh 29.86 in1011.2 mb - 0.00 in0.0 mm 0.09 in2.3 mm
10:39 PM 41.5°F5.3°C 41.5°F5.3°C 100% Calm Calm 3.5 mph5.6 kmh 29.86 in1011.2 mb - 0.00 in0.0 mm 0.09 in2.3 mm
10:49 PM 41.5°F5.3°C 41.5°F5.3°C 100% Calm Calm -- 29.86 in1011.2 mb - 0.00 in0.0 mm 0.09 in2.3 mm
10:59 PM 41.5°F5.3°C 41.5°F5.3°C 100% Calm Calm -- 29.86 in1011.2 mb - 0.00 in0.0 mm 0.09 in2.3 mm
11:09 PM 41.5°F5.3°C 41.5°F5.3°C 100% Calm Calm -- 29.86 in1011.2 mb - 0.00 in0.0 mm 0.09 in2.3 mm
11:19 PM 41.5°F5.3°C 41.5°F5.3°C 100% 1.2 mph SE1.9 kmh SE 3.5 mph5.6 kmh 29.86 in1011.2 mb - 0.00 in0.0 mm 0.09 in2.3 mm
11:29 PM 41.5°F5.3°C 41.5°F5.3°C 100% Calm Calm 2.3 mph3.7 kmh 29.86 in1011.2 mb - 0.00 in0.0 mm 0.09 in2.3 mm
11:39 PM 41.5°F5.3°C 41.5°F5.3°C 100% Calm Calm 2.3 mph3.7 kmh 29.86 in1011.2 mb - 0.00 in0.0 mm 0.09 in2.3 mm
11:49 PM 34.2°F1.2°C 34.2°F1.2°C 100% Calm Calm -- 29.86 in1011.2 mb - 0.00 in0.0 mm 0.09 in2.3 mm
11:59 PM 34.2°F1.2°C 34.2°F1.2°C 100% Calm Calm 3.5 mph5.6 kmh 29.86 in1011.2 mb - 0.00 in0.0 mm 0.60 in15.2 mm